sensor_id;sensor_type;location;lat;lon;timestamp;pressure;altitude;pressure_sealevel;temperature;humidity
68988;BME280;56038;46.080;11.116;2023-03-08T00:04:21;98012.53;;;7.91;59.89
68988;BME280;56038;46.080;11.116;2023-03-08T00:09:22;97999.31;;;7.78;60.36
68988;BME280;56038;46.080;11.116;2023-03-08T00:14:24;97992.59;;;7.74;60.13
68988;BME280;56038;46.080;11.116;2023-03-08T00:19:27;98003.75;;;7.76;59.88
68988;BME280;56038;46.080;11.116;2023-03-08T00:24:30;98008.56;;;7.66;61.15
68988;BME280;56038;46.080;11.116;2023-03-08T00:29:31;98006.97;;;7.64;60.73
68988;BME280;56038;46.080;11.116;2023-03-08T00:34:35;98003.13;;;7.71;60.63
68988;BME280;56038;46.080;11.116;2023-03-08T00:39:36;97998.25;;;7.65;61.07
68988;BME280;56038;46.080;11.116;2023-03-08T00:44:38;97998.69;;;7.56;61.42
68988;BME280;56038;46.080;11.116;2023-03-08T00:49:41;98005.81;;;7.35;62.65
68988;BME280;56038;46.080;11.116;2023-03-08T00:54:43;98015.13;;;7.39;61.94
68988;BME280;56038;46.080;11.116;2023-03-08T00:59:45;98006.56;;;7.37;62.16
68988;BME280;56038;46.080;11.116;2023-03-08T01:04:48;98008.41;;;7.35;61.79
68988;BME280;56038;46.080;11.116;2023-03-08T01:09:53;98004.88;;;7.36;61.59
68988;BME280;56038;46.080;11.116;2023-03-08T01:14:55;98008.97;;;7.22;62.03
68988;BME280;56038;46.080;11.116;2023-03-08T01:19:58;98010.59;;;7.25;61.75
68988;BME280;56038;46.080;11.116;2023-03-08T01:24:59;98008.22;;;7.20;61.90
68988;BME280;56038;46.080;11.116;2023-03-08T01:30:01;98011.28;;;7.11;62.23
68988;BME280;56038;46.080;11.116;2023-03-08T01:35:05;98015.97;;;7.03;62.93
68988;BME280;56038;46.080;11.116;2023-03-08T01:40:15;98028.63;;;6.92;63.11
68988;BME280;56038;46.080;11.116;2023-03-08T01:50:59;98025.81;;;6.78;63.27
68988;BME280;56038;46.080;11.116;2023-03-08T01:56:01;98026.81;;;6.75;63.50
68988;BME280;56038;46.080;11.116;2023-03-08T02:01:03;98042.81;;;6.85;62.89
68988;BME280;56038;46.080;11.116;2023-03-08T02:06:07;98046.72;;;6.75;63.37
68988;BME280;56038;46.080;11.116;2023-03-08T02:11:09;98050.25;;;6.74;63.25
68988;BME280;56038;46.080;11.116;2023-03-08T02:16:13;98037.34;;;6.72;63.37
68988;BME280;56038;46.080;11.116;2023-03-08T02:21:17;98023.81;;;6.66;63.92
68988;BME280;56038;46.080;11.116;2023-03-08T02:26:20;98027.03;;;6.52;64.10
68988;BME280;56038;46.080;11.116;2023-03-08T02:31:22;98023.75;;;6.48;64.32
68988;BME280;56038;46.080;11.116;2023-03-08T02:36:24;98044.59;;;6.45;64.89
68988;BME280;56038;46.080;11.116;2023-03-08T02:41:27;98032.69;;;6.41;64.77
68988;BME280;56038;46.080;11.116;2023-03-08T02:46:29;98032.69;;;6.41;64.67
68988;BME280;56038;46.080;11.116;2023-03-08T02:51:31;98021.63;;;6.38;64.84
68988;BME280;56038;46.080;11.116;2023-03-08T02:56:34;98032.28;;;6.32;65.11
68988;BME280;56038;46.080;11.116;2023-03-08T03:01:36;98028.47;;;6.20;65.51
68988;BME280;56038;46.080;11.116;2023-03-08T03:06:38;98033.84;;;6.15;65.65
68988;BME280;56038;46.080;11.116;2023-03-08T03:11:41;98037.94;;;6.21;65.69
68988;BME280;56038;46.080;11.116;2023-03-08T03:16:43;98044.22;;;6.15;65.98
68988;BME280;56038;46.080;11.116;2023-03-08T03:21:45;98043.16;;;6.00;65.90
68988;BME280;56038;46.080;11.116;2023-03-08T03:26:50;98042.81;;;6.08;66.17
68988;BME280;56038;46.080;11.116;2023-03-08T03:31:52;98055.97;;;6.04;66.26
68988;BME280;56038;46.080;11.116;2023-03-08T03:36:54;98064.06;;;5.96;66.24
68988;BME280;56038;46.080;11.116;2023-03-08T03:41:57;98075.53;;;5.90;66.46
68988;BME280;56038;46.080;11.116;2023-03-08T03:46:58;98080.81;;;5.87;66.41
68988;BME280;56038;46.080;11.116;2023-03-08T03:52:00;98080.16;;;5.82;66.04
68988;BME280;56038;46.080;11.116;2023-03-08T03:57:04;98083.91;;;5.75;66.16
68988;BME280;56038;46.080;11.116;2023-03-08T04:02:05;98092.59;;;5.74;66.41
68988;BME280;56038;46.080;11.116;2023-03-08T04:07:08;98104.09;;;5.67;66.46
68988;BME280;56038;46.080;11.116;2023-03-08T04:12:12;98121.66;;;5.60;66.00
68988;BME280;56038;46.080;11.116;2023-03-08T04:17:14;98130.38;;;5.58;66.61
68988;BME280;56038;46.080;11.116;2023-03-08T04:22:15;98136.59;;;5.54;66.32
68988;BME280;56038;46.080;11.116;2023-03-08T04:27:18;98142.38;;;5.38;66.66
68988;BME280;56038;46.080;11.116;2023-03-08T04:32:25;98143.38;;;5.34;67.31
68988;BME280;56038;46.080;11.116;2023-03-08T04:37:31;98150.16;;;5.38;67.09
68988;BME280;56038;46.080;11.116;2023-03-08T04:42:37;98158.78;;;5.16;68.27
68988;BME280;56038;46.080;11.116;2023-03-08T04:47:40;98153.41;;;5.20;67.90
68988;BME280;56038;46.080;11.116;2023-03-08T04:52:41;98149.84;;;5.24;67.96
68988;BME280;56038;46.080;11.116;2023-03-08T04:57:44;98158.38;;;5.26;67.86
68988;BME280;56038;46.080;11.116;2023-03-08T05:02:46;98169.75;;;5.22;67.92
68988;BME280;56038;46.080;11.116;2023-03-08T05:07:48;98170.41;;;5.27;67.82
68988;BME280;56038;46.080;11.116;2023-03-08T05:12:51;98159.81;;;5.33;67.68
68988;BME280;56038;46.080;11.116;2023-03-08T05:17:53;98163.56;;;5.26;67.55
68988;BME280;56038;46.080;11.116;2023-03-08T05:22:54;98156.91;;;5.19;68.00
68988;BME280;56038;46.080;11.116;2023-03-08T05:27:58;98167.44;;;5.15;67.73
68988;BME280;56038;46.080;11.116;2023-03-08T05:32:59;98156.31;;;5.13;67.95
68988;BME280;56038;46.080;11.116;2023-03-08T05:38:01;98166.06;;;5.06;68.51
68988;BME280;56038;46.080;11.116;2023-03-08T05:43:04;98163.63;;;5.01;68.56
68988;BME280;56038;46.080;11.116;2023-03-08T05:48:06;98172.13;;;5.05;68.08
68988;BME280;56038;46.080;11.116;2023-03-08T05:53:08;98180.78;;;5.04;68.64
68988;BME280;56038;46.080;11.116;2023-03-08T05:58:11;98176.75;;;4.97;68.80
68988;BME280;56038;46.080;11.116;2023-03-08T06:03:13;98188.72;;;4.99;68.77
68988;BME280;56038;46.080;11.116;2023-03-08T06:08:20;98187.75;;;5.02;69.21
68988;BME280;56038;46.080;11.116;2023-03-08T06:13:23;98198.22;;;4.99;68.91
68988;BME280;56038;46.080;11.116;2023-03-08T06:18:26;98182.31;;;5.09;68.19
68988;BME280;56038;46.080;11.116;2023-03-08T06:23:29;98179.28;;;5.22;68.33
68988;BME280;56038;46.080;11.116;2023-03-08T06:28:33;98191.03;;;5.74;69.71
68988;BME280;56038;46.080;11.116;2023-03-08T06:33:34;98201.72;;;5.88;66.20
68988;BME280;56038;46.080;11.116;2023-03-08T06:38:38;98204.56;;;6.04;65.91
68988;BME280;56038;46.080;11.116;2023-03-08T06:43:41;98202.53;;;6.11;65.24
68988;BME280;56038;46.080;11.116;2023-03-08T06:48:44;98215.31;;;6.15;65.47
68988;BME280;56038;46.080;11.116;2023-03-08T06:53:46;98216.53;;;6.07;66.10
68988;BME280;56038;46.080;11.116;2023-03-08T06:58:50;98225.03;;;6.10;66.11
68988;BME280;56038;46.080;11.116;2023-03-08T07:03:51;98226.56;;;6.16;66.26
68988;BME280;56038;46.080;11.116;2023-03-08T07:08:53;98233.09;;;6.24;66.08
68988;BME280;56038;46.080;11.116;2023-03-08T07:13:57;98233.38;;;6.39;65.29
68988;BME280;56038;46.080;11.116;2023-03-08T07:19:00;98239.06;;;6.47;65.62
68988;BME280;56038;46.080;11.116;2023-03-08T07:24:02;98244.78;;;6.75;65.56
68988;BME280;56038;46.080;11.116;2023-03-08T07:29:05;98245.09;;;7.08;64.38
68988;BME280;56038;46.080;11.116;2023-03-08T07:34:07;98250.19;;;7.10;63.67
68988;BME280;56038;46.080;11.116;2023-03-08T07:39:09;98243.38;;;7.28;62.94
68988;BME280;56038;46.080;11.116;2023-03-08T07:44:12;98250.25;;;7.47;62.24
68988;BME280;56038;46.080;11.116;2023-03-08T07:49:14;98258.75;;;7.70;61.32
68988;BME280;56038;46.080;11.116;2023-03-08T07:54:16;98256.91;;;7.91;60.92
68988;BME280;56038;46.080;11.116;2023-03-08T07:59:19;98262.78;;;8.13;60.14
68988;BME280;56038;46.080;11.116;2023-03-08T08:04:21;98267.59;;;8.39;59.55
68988;BME280;56038;46.080;11.116;2023-03-08T08:09:23;98266.88;;;8.36;59.70
68988;BME280;56038;46.080;11.116;2023-03-08T08:14:26;98269.56;;;8.52;59.16
68988;BME280;56038;46.080;11.116;2023-03-08T08:19:28;98276.09;;;8.60;58.53
68988;BME280;56038;46.080;11.116;2023-03-08T08:24:31;98279.09;;;8.70;58.42
68988;BME280;56038;46.080;11.116;2023-03-08T08:29:35;98286.50;;;8.78;57.88
68988;BME280;56038;46.080;11.116;2023-03-08T08:34:37;98290.88;;;8.77;58.03
68988;BME280;56038;46.080;11.116;2023-03-08T08:39:39;98288.88;;;8.99;57.54
68988;BME280;56038;46.080;11.116;2023-03-08T08:44:42;98290.06;;;9.27;57.03
68988;BME280;56038;46.080;11.116;2023-03-08T08:49:44;98285.41;;;9.49;56.35
68988;BME280;56038;46.080;11.116;2023-03-08T08:54:45;98272.78;;;9.57;56.15
68988;BME280;56038;46.080;11.116;2023-03-08T08:59:48;98268.44;;;9.89;54.57
68988;BME280;56038;46.080;11.116;2023-03-08T09:04:50;98269.28;;;10.22;54.77
68988;BME280;56038;46.080;11.116;2023-03-08T09:09:53;98262.84;;;10.73;53.06
68988;BME280;56038;46.080;11.116;2023-03-08T09:14:56;98256.03;;;11.29;52.32
68988;BME280;56038;46.080;11.116;2023-03-08T09:19:58;98248.28;;;11.13;51.68
68988;BME280;56038;46.080;11.116;2023-03-08T09:25:00;98246.31;;;11.31;51.00
68988;BME280;56038;46.080;11.116;2023-03-08T09:30:04;98243.03;;;11.56;50.68
68988;BME280;56038;46.080;11.116;2023-03-08T09:35:07;98232.34;;;11.87;49.32
68988;BME280;56038;46.080;11.116;2023-03-08T09:40:17;98225.09;;;12.05;45.90
68988;BME280;56038;46.080;11.116;2023-03-08T09:45:23;98224.25;;;12.84;45.82
68988;BME280;56038;46.080;11.116;2023-03-08T09:50:32;98229.72;;;13.32;44.73
68988;BME280;56038;46.080;11.116;2023-03-08T09:55:42;98217.84;;;13.13;47.14
68988;BME280;56038;46.080;11.116;2023-03-08T10:00:46;98190.19;;;14.19;47.75
68988;BME280;56038;46.080;11.116;2023-03-08T10:05:52;98194.19;;;14.60;45.55
68988;BME280;56038;46.080;11.116;2023-03-08T10:10:58;98182.84;;;14.35;45.83
68988;BME280;56038;46.080;11.116;2023-03-08T10:16:10;98182.28;;;14.78;45.22
68988;BME280;56038;46.080;11.116;2023-03-08T10:21:16;98183.00;;;14.91;44.49
68988;BME280;56038;46.080;11.116;2023-03-08T10:26:18;98174.31;;;15.02;44.50
68988;BME280;56038;46.080;11.116;2023-03-08T10:31:24;98169.41;;;15.65;43.12
68988;BME280;56038;46.080;11.116;2023-03-08T10:36:26;98167.16;;;15.15;41.38
68988;BME280;56038;46.080;11.116;2023-03-08T10:41:28;98154.53;;;15.75;40.64
68988;BME280;56038;46.080;11.116;2023-03-08T10:46:33;98163.22;;;15.86;41.37
68988;BME280;56038;46.080;11.116;2023-03-08T10:51:56;98135.56;;;17.17;39.99
68988;BME280;56038;46.080;11.116;2023-03-08T10:56:59;98137.75;;;17.52;40.18
68988;BME280;56038;46.080;11.116;2023-03-08T11:02:16;98138.38;;;17.25;36.08
68988;BME280;56038;46.080;11.116;2023-03-08T11:07:24;98140.34;;;17.73;39.84
68988;BME280;56038;46.080;11.116;2023-03-08T11:12:26;98113.56;;;17.38;36.52
68988;BME280;56038;46.080;11.116;2023-03-08T11:17:32;98086.72;;;17.32;34.94
68988;BME280;56038;46.080;11.116;2023-03-08T11:22:52;98084.97;;;16.51;38.21
68988;BME280;56038;46.080;11.116;2023-03-08T11:28:10;98066.94;;;17.77;36.15
68988;BME280;56038;46.080;11.116;2023-03-08T11:38:56;98062.38;;;19.29;34.82
68988;BME280;56038;46.080;11.116;2023-03-08T11:44:24;98048.38;;;19.82;32.58
68988;BME280;56038;46.080;11.116;2023-03-08T11:49:50;98027.69;;;20.47;31.44
68988;BME280;56038;46.080;11.116;2023-03-08T11:55:06;98031.47;;;20.00;32.03
68988;BME280;56038;46.080;11.116;2023-03-08T12:00:17;98017.88;;;19.78;34.38
68988;BME280;56038;46.080;11.116;2023-03-08T12:05:26;98035.72;;;20.55;33.37
68988;BME280;56038;46.080;11.116;2023-03-08T12:10:35;98027.28;;;20.59;32.32
68988;BME280;56038;46.080;11.116;2023-03-08T12:15:46;98024.66;;;18.99;34.62
68988;BME280;56038;46.080;11.116;2023-03-08T12:20:54;98017.91;;;20.03;33.32
68988;BME280;56038;46.080;11.116;2023-03-08T12:26:05;98019.03;;;20.01;32.89
68988;BME280;56038;46.080;11.116;2023-03-08T12:31:19;98005.00;;;19.02;33.79
68988;BME280;56038;46.080;11.116;2023-03-08T12:36:36;98000.47;;;17.62;35.20
68988;BME280;56038;46.080;11.116;2023-03-08T12:41:38;98000.34;;;16.85;38.65
68988;BME280;56038;46.080;11.116;2023-03-08T12:46:45;98002.47;;;16.60;38.65
68988;BME280;56038;46.080;11.116;2023-03-08T12:51:58;98001.28;;;16.23;39.14
68988;BME280;56038;46.080;11.116;2023-03-08T12:57:03;98003.63;;;16.16;40.77
68988;BME280;56038;46.080;11.116;2023-03-08T13:02:27;97991.75;;;16.01;41.10
68988;BME280;56038;46.080;11.116;2023-03-08T13:07:35;97987.78;;;15.53;42.41
68988;BME280;56038;46.080;11.116;2023-03-08T13:13:00;97995.84;;;15.41;43.46
68988;BME280;56038;46.080;11.116;2023-03-08T13:18:13;97982.22;;;15.36;42.62
68988;BME280;56038;46.080;11.116;2023-03-08T13:23:24;97973.38;;;15.37;43.49
68988;BME280;56038;46.080;11.116;2023-03-08T13:28:32;97973.06;;;15.51;42.90
68988;BME280;56038;46.080;11.116;2023-03-08T13:33:36;97970.19;;;15.54;42.68
68988;BME280;56038;46.080;11.116;2023-03-08T13:38:40;97970.53;;;15.61;42.44
68988;BME280;56038;46.080;11.116;2023-03-08T13:43:42;97960.22;;;15.57;42.70
68988;BME280;56038;46.080;11.116;2023-03-08T13:48:44;97975.38;;;15.44;42.92
68988;BME280;56038;46.080;11.116;2023-03-08T13:53:47;97961.97;;;15.47;43.13
68988;BME280;56038;46.080;11.116;2023-03-08T13:58:50;97952.88;;;15.19;44.39
68988;BME280;56038;46.080;11.116;2023-03-08T14:03:54;97957.63;;;15.25;44.20
68988;BME280;56038;46.080;11.116;2023-03-08T14:08:59;97954.81;;;15.17;43.06
68988;BME280;56038;46.080;11.116;2023-03-08T14:14:04;97950.31;;;15.29;43.52
68988;BME280;56038;46.080;11.116;2023-03-08T14:19:10;97942.13;;;15.11;44.03
68988;BME280;56038;46.080;11.116;2023-03-08T14:24:19;97965.31;;;15.17;44.01
68988;BME280;56038;46.080;11.116;2023-03-08T14:29:22;97955.75;;;15.16;44.29
68988;BME280;56038;46.080;11.116;2023-03-08T14:34:26;97938.88;;;15.19;44.51
68988;BME280;56038;46.080;11.116;2023-03-08T14:39:31;97939.22;;;15.25;44.65
68988;BME280;56038;46.080;11.116;2023-03-08T14:44:33;97953.31;;;15.24;44.93
68988;BME280;56038;46.080;11.116;2023-03-08T14:49:35;97954.16;;;15.25;44.58
68988;BME280;56038;46.080;11.116;2023-03-08T14:54:38;97945.59;;;15.12;45.12
68988;BME280;56038;46.080;11.116;2023-03-08T14:59:40;97940.47;;;15.10;45.58
68988;BME280;56038;46.080;11.116;2023-03-08T15:04:44;97938.22;;;15.06;45.64
68988;BME280;56038;46.080;11.116;2023-03-08T15:09:49;97965.47;;;15.05;44.64
68988;BME280;56038;46.080;11.116;2023-03-08T15:14:51;97969.44;;;14.99;44.91
68988;BME280;56038;46.080;11.116;2023-03-08T15:19:53;97969.44;;;14.99;44.70
68988;BME280;56038;46.080;11.116;2023-03-08T15:24:56;97961.25;;;14.70;45.42
68988;BME280;56038;46.080;11.116;2023-03-08T15:29:58;97955.41;;;14.44;46.26
68988;BME280;56038;46.080;11.116;2023-03-08T15:34:59;97963.38;;;14.31;46.46
68988;BME280;56038;46.080;11.116;2023-03-08T15:40:03;97957.03;;;14.34;45.33
68988;BME280;56038;46.080;11.116;2023-03-08T15:45:07;97946.53;;;14.34;46.31
68988;BME280;56038;46.080;11.116;2023-03-08T15:50:13;97943.13;;;14.45;46.12
68988;BME280;56038;46.080;11.116;2023-03-08T15:55:17;97963.38;;;14.43;45.88
68988;BME280;56038;46.080;11.116;2023-03-08T16:00:21;97971.25;;;14.31;46.40
68988;BME280;56038;46.080;11.116;2023-03-08T16:05:23;97968.84;;;14.17;46.78
68988;BME280;56038;46.080;11.116;2023-03-08T16:10:29;97956.09;;;14.13;46.94
68988;BME280;56038;46.080;11.116;2023-03-08T16:15:31;97955.00;;;14.04;47.28
68988;BME280;56038;46.080;11.116;2023-03-08T16:20:32;97953.81;;;13.97;47.04
68988;BME280;56038;46.080;11.116;2023-03-08T16:25:35;97959.53;;;13.91;47.31
68988;BME280;56038;46.080;11.116;2023-03-08T16:30:37;97973.38;;;13.93;47.28
68988;BME280;56038;46.080;11.116;2023-03-08T16:35:47;97977.53;;;13.84;47.44
68988;BME280;56038;46.080;11.116;2023-03-08T16:40:50;97988.97;;;13.83;47.23
68988;BME280;56038;46.080;11.116;2023-03-08T16:45:54;97978.56;;;13.70;47.66
68988;BME280;56038;46.080;11.116;2023-03-08T16:50:57;97983.56;;;13.62;47.70
68988;BME280;56038;46.080;11.116;2023-03-08T16:56:01;97987.56;;;13.55;48.04
68988;BME280;56038;46.080;11.116;2023-03-08T17:01:09;97996.75;;;13.49;48.23
68988;BME280;56038;46.080;11.116;2023-03-08T17:06:14;97992.09;;;13.42;48.38
68988;BME280;56038;46.080;11.116;2023-03-08T17:11:20;97994.19;;;13.37;48.22
68988;BME280;56038;46.080;11.116;2023-03-08T17:16:22;97995.31;;;13.22;49.41
68988;BME280;56038;46.080;11.116;2023-03-08T17:21:25;98002.22;;;13.23;48.56
68988;BME280;56038;46.080;11.116;2023-03-08T17:26:29;98004.13;;;13.21;49.29
68988;BME280;56038;46.080;11.116;2023-03-08T17:31:30;98008.00;;;13.15;48.67
68988;BME280;56038;46.080;11.116;2023-03-08T17:36:32;98011.81;;;13.11;48.70
68988;BME280;56038;46.080;11.116;2023-03-08T17:41:35;98016.75;;;13.03;48.75
68988;BME280;56038;46.080;11.116;2023-03-08T17:46:37;98049.59;;;12.96;48.99
68988;BME280;56038;46.080;11.116;2023-03-08T17:51:39;98049.69;;;12.94;48.94
68988;BME280;56038;46.080;11.116;2023-03-08T17:56:43;98066.56;;;12.90;49.30
68988;BME280;56038;46.080;11.116;2023-03-08T18:01:45;98072.97;;;12.86;49.06
68988;BME280;56038;46.080;11.116;2023-03-08T18:06:47;98080.75;;;12.75;49.55
68988;BME280;56038;46.080;11.116;2023-03-08T18:11:50;98079.78;;;12.76;49.25
68988;BME280;56038;46.080;11.116;2023-03-08T18:16:52;98077.59;;;12.82;49.03
68988;BME280;56038;46.080;11.116;2023-03-08T18:21:54;98088.59;;;12.87;48.62
68988;BME280;56038;46.080;11.116;2023-03-08T18:26:58;98085.25;;;12.85;48.76
68988;BME280;56038;46.080;11.116;2023-03-08T18:32:01;98096.47;;;12.75;49.13
68988;BME280;56038;46.080;11.116;2023-03-08T18:37:03;98082.00;;;12.82;48.69
68988;BME280;56038;46.080;11.116;2023-03-08T18:42:06;98071.41;;;12.83;48.78
68988;BME280;56038;46.080;11.116;2023-03-08T18:47:09;98089.88;;;12.82;48.67
68988;BME280;56038;46.080;11.116;2023-03-08T18:52:11;98108.63;;;12.76;48.84
68988;BME280;56038;46.080;11.116;2023-03-08T18:57:14;98108.00;;;12.72;49.09
68988;BME280;56038;46.080;11.116;2023-03-08T19:02:17;98097.00;;;12.67;49.31
68988;BME280;56038;46.080;11.116;2023-03-08T19:07:20;98095.94;;;12.57;49.57
68988;BME280;56038;46.080;11.116;2023-03-08T19:12:23;98090.31;;;12.50;49.80
68988;BME280;56038;46.080;11.116;2023-03-08T19:17:26;98089.75;;;12.45;49.71
68988;BME280;56038;46.080;11.116;2023-03-08T19:22:28;98088.41;;;12.40;49.88
68988;BME280;56038;46.080;11.116;2023-03-08T19:27:33;98100.56;;;12.41;49.75
68988;BME280;56038;46.080;11.116;2023-03-08T19:32:35;98099.09;;;12.37;49.68
68988;BME280;56038;46.080;11.116;2023-03-08T19:37:36;98093.53;;;12.28;50.12
68988;BME280;56038;46.080;11.116;2023-03-08T19:42:39;98085.47;;;12.19;50.37
68988;BME280;56038;46.080;11.116;2023-03-08T19:47:41;98097.50;;;12.21;50.43
68988;BME280;56038;46.080;11.116;2023-03-08T19:52:43;98099.06;;;12.11;50.92
68988;BME280;56038;46.080;11.116;2023-03-08T19:57:46;98101.25;;;12.05;51.42
68988;BME280;56038;46.080;11.116;2023-03-08T20:02:48;98102.59;;;11.97;51.59
68988;BME280;56038;46.080;11.116;2023-03-08T20:07:50;98108.66;;;11.98;51.40
68988;BME280;56038;46.080;11.116;2023-03-08T20:12:53;98113.16;;;11.96;51.92
68988;BME280;56038;46.080;11.116;2023-03-08T20:17:57;98119.94;;;11.86;53.20
68988;BME280;56038;46.080;11.116;2023-03-08T20:22:59;98115.72;;;11.83;53.11
68988;BME280;56038;46.080;11.116;2023-03-08T20:28:05;98119.50;;;11.79;54.06
68988;BME280;56038;46.080;11.116;2023-03-08T20:33:10;98125.09;;;11.73;54.14
68988;BME280;56038;46.080;11.116;2023-03-08T20:38:12;98127.81;;;11.72;53.74
68988;BME280;56038;46.080;11.116;2023-03-08T20:43:18;98128.88;;;11.69;54.05
68988;BME280;56038;46.080;11.116;2023-03-08T20:48:19;98122.03;;;11.66;53.67
68988;BME280;56038;46.080;11.116;2023-03-08T20:53:21;98123.81;;;11.66;53.71
68988;BME280;56038;46.080;11.116;2023-03-08T20:58:26;98137.09;;;11.63;54.01
68988;BME280;56038;46.080;11.116;2023-03-08T21:03:28;98129.44;;;11.60;53.67
68988;BME280;56038;46.080;11.116;2023-03-08T21:08:30;98134.69;;;11.60;54.36
68988;BME280;56038;46.080;11.116;2023-03-08T21:13:33;98132.06;;;11.60;54.00
68988;BME280;56038;46.080;11.116;2023-03-08T21:18:35;98139.06;;;11.59;53.67
68988;BME280;56038;46.080;11.116;2023-03-08T21:23:37;98141.97;;;11.55;53.66
68988;BME280;56038;46.080;11.116;2023-03-08T21:28:41;98144.03;;;11.50;54.03
68988;BME280;56038;46.080;11.116;2023-03-08T21:33:44;98125.09;;;11.46;53.99
68988;BME280;56038;46.080;11.116;2023-03-08T21:38:49;98117.34;;;11.45;54.10
68988;BME280;56038;46.080;11.116;2023-03-08T21:43:53;98135.09;;;11.39;55.55
68988;BME280;56038;46.080;11.116;2023-03-08T21:48:55;98133.22;;;11.42;54.20
68988;BME280;56038;46.080;11.116;2023-03-08T21:53:58;98131.66;;;11.39;53.86
68988;BME280;56038;46.080;11.116;2023-03-08T21:59:01;98151.75;;;11.38;54.00
68988;BME280;56038;46.080;11.116;2023-03-08T22:04:03;98135.69;;;11.30;54.25
68988;BME280;56038;46.080;11.116;2023-03-08T22:09:06;98133.56;;;11.23;54.76
68988;BME280;56038;46.080;11.116;2023-03-08T22:14:09;98121.88;;;11.14;54.48
68988;BME280;56038;46.080;11.116;2023-03-08T22:19:11;98106.97;;;11.02;55.53
68988;BME280;56038;46.080;11.116;2023-03-08T22:24:13;98105.69;;;10.95;55.78
68988;BME280;56038;46.080;11.116;2023-03-08T22:29:16;98112.78;;;10.93;55.78
68988;BME280;56038;46.080;11.116;2023-03-08T22:34:18;98106.22;;;10.86;56.26
68988;BME280;56038;46.080;11.116;2023-03-08T22:39:20;98107.16;;;10.85;55.65
68988;BME280;56038;46.080;11.116;2023-03-08T22:44:23;98103.28;;;10.77;55.35
68988;BME280;56038;46.080;11.116;2023-03-08T22:49:25;98094.69;;;10.75;56.21
68988;BME280;56038;46.080;11.116;2023-03-08T22:54:26;98078.44;;;10.70;56.24
68988;BME280;56038;46.080;11.116;2023-03-08T22:59:30;98061.94;;;10.70;56.10
68988;BME280;56038;46.080;11.116;2023-03-08T23:04:31;98061.59;;;10.62;56.09
68988;BME280;56038;46.080;11.116;2023-03-08T23:09:33;98058.03;;;10.63;56.55
68988;BME280;56038;46.080;11.116;2023-03-08T23:14:37;98048.97;;;10.68;55.64
68988;BME280;56038;46.080;11.116;2023-03-08T23:19:39;98065.66;;;10.52;56.84
68988;BME280;56038;46.080;11.116;2023-03-08T23:24:44;98075.56;;;10.32;58.73
68988;BME280;56038;46.080;11.116;2023-03-08T23:29:50;98061.63;;;10.17;57.33
68988;BME280;56038;46.080;11.116;2023-03-08T23:34:52;98057.31;;;10.16;57.69
68988;BME280;56038;46.080;11.116;2023-03-08T23:39:54;98078.28;;;10.15;57.94
68988;BME280;56038;46.080;11.116;2023-03-08T23:44:57;98080.25;;;10.11;57.50
68988;BME280;56038;46.080;11.116;2023-03-08T23:49:59;98080.03;;;10.00;58.10
68988;BME280;56038;46.080;11.116;2023-03-08T23:55:00;98081.91;;;9.98;58.43
